sensor_id;sensor_type;location;lat;lon;timestamp;pressure;altitude;pressure_sealevel;temperature;humidity
68594;BME280;55563;52.416;13.548;2023-05-11T00:00:26;100930.69;;;12.99;100.00
68594;BME280;55563;52.416;13.548;2023-05-11T00:02:27;100933.56;;;12.98;100.00
68594;BME280;55563;52.416;13.548;2023-05-11T00:04:28;100931.47;;;12.95;100.00
68594;BME280;55563;52.416;13.548;2023-05-11T00:06:28;100931.75;;;12.93;100.00
68594;BME280;55563;52.416;13.548;2023-05-11T00:08:29;100922.78;;;12.89;100.00
68594;BME280;55563;52.416;13.548;2023-05-11T00:10:30;100925.94;;;12.91;100.00
68594;BME280;55563;52.416;13.548;2023-05-11T00:12:30;100923.84;;;12.68;100.00
68594;BME280;55563;52.416;13.548;2023-05-11T00:14:31;100930.97;;;12.57;100.00
68594;BME280;55563;52.416;13.548;2023-05-11T00:16:31;100919.63;;;12.37;100.00
68594;BME280;55563;52.416;13.548;2023-05-11T00:18:32;100930.44;;;12.45;100.00
68594;BME280;55563;52.416;13.548;2023-05-11T00:20:33;100938.06;;;12.16;100.00
68594;BME280;55563;52.416;13.548;2023-05-11T00:22:33;100934.34;;;12.02;100.00
68594;BME280;55563;52.416;13.548;2023-05-11T00:24:34;100936.16;;;11.92;100.00
68594;BME280;55563;52.416;13.548;2023-05-11T00:26:34;100938.75;;;11.82;100.00
68594;BME280;55563;52.416;13.548;2023-05-11T00:28:35;100947.91;;;11.69;100.00
68594;BME280;55563;52.416;13.548;2023-05-11T00:30:36;100945.47;;;11.57;100.00
68594;BME280;55563;52.416;13.548;2023-05-11T00:32:36;100947.00;;;11.48;100.00
68594;BME280;55563;52.416;13.548;2023-05-11T00:34:37;100950.44;;;11.49;100.00
68594;BME280;55563;52.416;13.548;2023-05-11T00:36:38;100944.38;;;11.48;100.00
68594;BME280;55563;52.416;13.548;2023-05-11T00:38:39;100941.22;;;11.51;100.00
68594;BME280;55563;52.416;13.548;2023-05-11T00:40:40;100946.75;;;11.45;100.00
68594;BME280;55563;52.416;13.548;2023-05-11T00:42:41;100948.13;;;11.62;100.00
68594;BME280;55563;52.416;13.548;2023-05-11T00:44:41;100944.59;;;11.99;100.00
68594;BME280;55563;52.416;13.548;2023-05-11T00:46:42;100931.44;;;12.09;100.00
68594;BME280;55563;52.416;13.548;2023-05-11T00:48:43;100933.81;;;12.15;100.00
68594;BME280;55563;52.416;13.548;2023-05-11T00:50:44;100933.28;;;12.03;100.00
68594;BME280;55563;52.416;13.548;2023-05-11T00:52:45;100928.81;;;11.99;100.00
68594;BME280;55563;52.416;13.548;2023-05-11T00:54:47;100939.53;;;11.77;100.00
68594;BME280;55563;52.416;13.548;2023-05-11T00:56:48;100946.22;;;11.48;100.00
68594;BME280;55563;52.416;13.548;2023-05-11T00:58:48;100951.50;;;11.53;100.00
68594;BME280;55563;52.416;13.548;2023-05-11T01:00:49;100954.09;;;11.48;100.00
68594;BME280;55563;52.416;13.548;2023-05-11T01:02:50;100958.81;;;11.41;100.00
68594;BME280;55563;52.416;13.548;2023-05-11T01:04:52;100956.69;;;11.37;100.00
68594;BME280;55563;52.416;13.548;2023-05-11T01:09:23;100958.75;;;11.25;100.00
68594;BME280;55563;52.416;13.548;2023-05-11T01:11:50;100968.44;;;11.20;100.00
68594;BME280;55563;52.416;13.548;2023-05-11T01:14:05;100971.06;;;11.20;100.00
68594;BME280;55563;52.416;13.548;2023-05-11T01:16:14;100972.38;;;11.22;100.00
68594;BME280;55563;52.416;13.548;2023-05-11T01:18:31;100974.75;;;11.19;100.00
68594;BME280;55563;52.416;13.548;2023-05-11T01:20:43;100978.69;;;11.16;100.00
68594;BME280;55563;52.416;13.548;2023-05-11T01:26:04;100970.31;;;11.24;100.00
68594;BME280;55563;52.416;13.548;2023-05-11T01:28:28;100968.88;;;11.54;100.00
68594;BME280;55563;52.416;13.548;2023-05-11T01:30:56;100958.59;;;11.52;100.00
68594;BME280;55563;52.416;13.548;2023-05-11T01:33:02;100959.16;;;11.54;100.00
68594;BME280;55563;52.416;13.548;2023-05-11T01:35:08;100963.03;;;11.42;100.00
68594;BME280;55563;52.416;13.548;2023-05-11T01:37:17;100964.03;;;11.30;100.00
68594;BME280;55563;52.416;13.548;2023-05-11T01:39:25;100965.00;;;11.19;100.00
68594;BME280;55563;52.416;13.548;2023-05-11T01:41:28;100972.69;;;11.26;100.00
68594;BME280;55563;52.416;13.548;2023-05-11T01:43:34;100967.63;;;11.19;100.00
68594;BME280;55563;52.416;13.548;2023-05-11T01:45:42;100972.94;;;11.24;100.00
68594;BME280;55563;52.416;13.548;2023-05-11T01:47:48;100960.38;;;11.42;100.00
68594;BME280;55563;52.416;13.548;2023-05-11T01:49:51;100964.13;;;11.46;100.00
68594;BME280;55563;52.416;13.548;2023-05-11T01:51:54;100961.16;;;11.37;100.00
68594;BME280;55563;52.416;13.548;2023-05-11T01:53:55;100970.53;;;11.23;100.00
68594;BME280;55563;52.416;13.548;2023-05-11T01:55:58;100971.38;;;11.28;100.00
68594;BME280;55563;52.416;13.548;2023-05-11T01:58:01;100974.47;;;11.15;100.00
68594;BME280;55563;52.416;13.548;2023-05-11T02:00:06;100974.28;;;11.32;100.00
68594;BME280;55563;52.416;13.548;2023-05-11T02:02:17;100969.31;;;11.35;100.00
68594;BME280;55563;52.416;13.548;2023-05-11T02:04:20;100975.84;;;11.28;100.00
68594;BME280;55563;52.416;13.548;2023-05-11T02:06:22;100972.03;;;11.09;100.00
68594;BME280;55563;52.416;13.548;2023-05-11T02:08:25;100972.78;;;11.04;100.00
68594;BME280;55563;52.416;13.548;2023-05-11T02:10:27;100988.00;;;10.97;100.00
68594;BME280;55563;52.416;13.548;2023-05-11T02:12:30;100990.34;;;10.93;100.00
68594;BME280;55563;52.416;13.548;2023-05-11T02:14:34;100985.94;;;11.04;100.00
68594;BME280;55563;52.416;13.548;2023-05-11T02:16:36;100988.38;;;11.11;100.00
68594;BME280;55563;52.416;13.548;2023-05-11T02:18:39;100978.38;;;11.13;100.00
68594;BME280;55563;52.416;13.548;2023-05-11T02:20:44;100982.78;;;11.02;100.00
68594;BME280;55563;52.416;13.548;2023-05-11T02:22:48;100989.72;;;11.18;100.00
68594;BME280;55563;52.416;13.548;2023-05-11T02:24:50;100980.72;;;11.09;100.00
68594;BME280;55563;52.416;13.548;2023-05-11T02:26:50;100981.44;;;11.00;100.00
68594;BME280;55563;52.416;13.548;2023-05-11T02:28:51;100990.59;;;10.92;100.00
68594;BME280;55563;52.416;13.548;2023-05-11T02:30:54;100984.97;;;10.78;100.00
68594;BME280;55563;52.416;13.548;2023-05-11T02:32:57;100983.06;;;10.69;100.00
68594;BME280;55563;52.416;13.548;2023-05-11T02:35:08;100990.50;;;10.50;100.00
68594;BME280;55563;52.416;13.548;2023-05-11T02:37:14;100994.06;;;10.39;100.00
68594;BME280;55563;52.416;13.548;2023-05-11T02:39:19;100997.69;;;10.33;100.00
68594;BME280;55563;52.416;13.548;2023-05-11T02:41:25;101000.81;;;10.57;100.00
68594;BME280;55563;52.416;13.548;2023-05-11T02:43:32;100995.69;;;10.72;100.00
68594;BME280;55563;52.416;13.548;2023-05-11T02:45:38;100993.34;;;10.75;100.00
68594;BME280;55563;52.416;13.548;2023-05-11T02:47:47;100986.06;;;10.82;100.00
68594;BME280;55563;52.416;13.548;2023-05-11T02:49:56;100985.59;;;10.90;100.00
68594;BME280;55563;52.416;13.548;2023-05-11T02:52:01;100985.31;;;10.87;100.00
68594;BME280;55563;52.416;13.548;2023-05-11T02:54:08;100983.84;;;10.69;100.00
68594;BME280;55563;52.416;13.548;2023-05-11T02:56:13;100990.34;;;10.62;100.00
68594;BME280;55563;52.416;13.548;2023-05-11T02:58:39;100986.22;;;10.71;100.00
68594;BME280;55563;52.416;13.548;2023-05-11T03:00:58;100988.84;;;10.71;100.00
68594;BME280;55563;52.416;13.548;2023-05-11T03:02:59;100992.28;;;10.71;100.00
68594;BME280;55563;52.416;13.548;2023-05-11T03:05:00;100991.09;;;10.57;100.00
68594;BME280;55563;52.416;13.548;2023-05-11T03:07:02;100994.19;;;10.49;100.00
68594;BME280;55563;52.416;13.548;2023-05-11T03:09:03;100991.44;;;10.39;100.00
68594;BME280;55563;52.416;13.548;2023-05-11T03:11:08;100992.66;;;10.26;100.00
68594;BME280;55563;52.416;13.548;2023-05-11T03:13:10;100996.78;;;10.22;100.00
68594;BME280;55563;52.416;13.548;2023-05-11T03:15:13;100995.22;;;10.21;100.00
68594;BME280;55563;52.416;13.548;2023-05-11T03:17:18;101001.97;;;10.39;100.00
68594;BME280;55563;52.416;13.548;2023-05-11T03:19:21;100992.88;;;10.52;100.00
68594;BME280;55563;52.416;13.548;2023-05-11T03:21:23;100998.03;;;10.41;100.00
68594;BME280;55563;52.416;13.548;2023-05-11T03:23:24;100990.38;;;10.35;100.00
68594;BME280;55563;52.416;13.548;2023-05-11T03:25:27;101003.09;;;10.21;100.00
68594;BME280;55563;52.416;13.548;2023-05-11T03:27:28;100996.72;;;10.17;100.00
68594;BME280;55563;52.416;13.548;2023-05-11T03:29:30;101000.84;;;10.13;100.00
68594;BME280;55563;52.416;13.548;2023-05-11T03:31:31;100997.13;;;10.09;100.00
68594;BME280;55563;52.416;13.548;2023-05-11T03:33:33;100996.72;;;10.17;100.00
68594;BME280;55563;52.416;13.548;2023-05-11T03:35:35;101003.09;;;10.21;100.00
68594;BME280;55563;52.416;13.548;2023-05-11T03:37:37;100996.59;;;10.29;100.00
68594;BME280;55563;52.416;13.548;2023-05-11T03:39:42;100997.34;;;10.24;100.00
68594;BME280;55563;52.416;13.548;2023-05-11T03:41:48;101002.09;;;10.27;100.00
68594;BME280;55563;52.416;13.548;2023-05-11T03:43:51;100996.09;;;10.32;100.00
68594;BME280;55563;52.416;13.548;2023-05-11T03:45:53;101000.88;;;10.35;100.00
68594;BME280;55563;52.416;13.548;2023-05-11T03:47:56;101003.66;;;10.50;100.00
68594;BME280;55563;52.416;13.548;2023-05-11T03:49:58;101006.75;;;10.74;100.00
68594;BME280;55563;52.416;13.548;2023-05-11T03:51:59;101004.19;;;10.84;100.00
68594;BME280;55563;52.416;13.548;2023-05-11T03:54:00;101001.91;;;10.92;100.00
68594;BME280;55563;52.416;13.548;2023-05-11T03:56:02;100991.84;;;12.26;100.00
68594;BME280;55563;52.416;13.548;2023-05-11T03:58:07;100983.94;;;12.31;100.00
68594;BME280;55563;52.416;13.548;2023-05-11T04:00:09;100988.84;;;13.69;100.00
68594;BME280;55563;52.416;13.548;2023-05-11T04:02:17;100979.66;;;14.59;100.00
68594;BME280;55563;52.416;13.548;2023-05-11T04:04:19;100983.88;;;15.47;100.00
68594;BME280;55563;52.416;13.548;2023-05-11T04:06:20;100980.38;;;16.18;100.00
68594;BME280;55563;52.416;13.548;2023-05-11T04:08:26;100983.09;;;15.46;100.00
68594;BME280;55563;52.416;13.548;2023-05-11T04:10:26;100975.13;;;14.65;100.00
68594;BME280;55563;52.416;13.548;2023-05-11T04:12:27;100977.88;;;15.12;100.00
68594;BME280;55563;52.416;13.548;2023-05-11T04:14:28;100977.03;;;16.82;100.00
68594;BME280;55563;52.416;13.548;2023-05-11T04:16:28;100976.69;;;18.34;100.00
68594;BME280;55563;52.416;13.548;2023-05-11T04:18:29;100978.06;;;19.29;100.00
68594;BME280;55563;52.416;13.548;2023-05-11T04:20:30;100987.50;;;19.74;98.62
68594;BME280;55563;52.416;13.548;2023-05-11T04:22:31;100988.53;;;19.25;97.52
68594;BME280;55563;52.416;13.548;2023-05-11T04:24:31;100981.13;;;20.53;91.88
68594;BME280;55563;52.416;13.548;2023-05-11T04:26:32;100993.41;;;21.09;79.34
68594;BME280;55563;52.416;13.548;2023-05-11T04:28:33;100986.81;;;21.06;79.60
68594;BME280;55563;52.416;13.548;2023-05-11T04:30:33;100985.00;;;21.65;75.76
68594;BME280;55563;52.416;13.548;2023-05-11T04:32:34;100992.41;;;21.89;73.06
68594;BME280;55563;52.416;13.548;2023-05-11T04:34:35;100989.56;;;21.36;79.25
68594;BME280;55563;52.416;13.548;2023-05-11T04:36:38;100988.97;;;22.84;65.53
68594;BME280;55563;52.416;13.548;2023-05-11T04:38:38;100988.53;;;22.28;69.00
68594;BME280;55563;52.416;13.548;2023-05-11T04:40:40;100997.22;;;23.72;60.71
68594;BME280;55563;52.416;13.548;2023-05-11T04:42:42;100998.66;;;22.02;69.38
68594;BME280;55563;52.416;13.548;2023-05-11T04:44:51;101001.03;;;23.47;61.78
68594;BME280;55563;52.416;13.548;2023-05-11T04:46:53;101000.47;;;23.78;58.56
68594;BME280;55563;52.416;13.548;2023-05-11T04:48:55;100998.91;;;24.29;56.13
68594;BME280;55563;52.416;13.548;2023-05-11T04:50:56;101003.13;;;25.48;52.91
68594;BME280;55563;52.416;13.548;2023-05-11T04:53:01;101005.59;;;25.06;52.72
68594;BME280;55563;52.416;13.548;2023-05-11T04:55:02;101001.56;;;25.47;50.79
68594;BME280;55563;52.416;13.548;2023-05-11T04:57:03;101013.22;;;24.89;52.70
68594;BME280;55563;52.416;13.548;2023-05-11T04:59:06;101013.06;;;24.85;52.80
68594;BME280;55563;52.416;13.548;2023-05-11T05:01:07;101009.41;;;25.87;48.70
68594;BME280;55563;52.416;13.548;2023-05-11T05:03:07;101008.88;;;25.63;49.07
68594;BME280;55563;52.416;13.548;2023-05-11T05:05:08;101015.44;;;26.00;48.72
68594;BME280;55563;52.416;13.548;2023-05-11T05:07:10;101017.25;;;26.88;47.26
68594;BME280;55563;52.416;13.548;2023-05-11T05:09:11;101009.19;;;25.77;47.97
68594;BME280;55563;52.416;13.548;2023-05-11T05:11:12;101008.44;;;25.60;47.30
68594;BME280;55563;52.416;13.548;2023-05-11T05:13:13;101019.47;;;24.93;49.26
68594;BME280;55563;52.416;13.548;2023-05-11T05:15:16;101012.38;;;25.32;48.27
68594;BME280;55563;52.416;13.548;2023-05-11T05:17:16;101013.94;;;26.18;47.04
68594;BME280;55563;52.416;13.548;2023-05-11T05:19:17;101023.91;;;26.95;45.71
68594;BME280;55563;52.416;13.548;2023-05-11T05:21:18;101013.75;;;27.33;42.84
68594;BME280;55563;52.416;13.548;2023-05-11T05:23:19;101015.56;;;27.03;44.70
68594;BME280;55563;52.416;13.548;2023-05-11T05:25:20;101016.34;;;26.04;44.34
68594;BME280;55563;52.416;13.548;2023-05-11T05:27:22;101022.00;;;26.95;44.68
68594;BME280;55563;52.416;13.548;2023-05-11T05:29:23;101021.50;;;24.28;47.41
68594;BME280;55563;52.416;13.548;2023-05-11T05:31:24;101022.09;;;25.36;46.43
68594;BME280;55563;52.416;13.548;2023-05-11T05:33:26;101021.09;;;25.44;45.92
68594;BME280;55563;52.416;13.548;2023-05-11T05:35:27;101032.22;;;24.40;47.60
68594;BME280;55563;52.416;13.548;2023-05-11T05:37:28;101022.09;;;27.02;43.94
68594;BME280;55563;52.416;13.548;2023-05-11T05:39:29;101023.81;;;27.86;41.38
68594;BME280;55563;52.416;13.548;2023-05-11T05:41:29;101022.22;;;26.48;42.50
68594;BME280;55563;52.416;13.548;2023-05-11T05:43:30;101031.31;;;27.73;42.41
68594;BME280;55563;52.416;13.548;2023-05-11T05:45:31;101034.69;;;26.95;43.10
68594;BME280;55563;52.416;13.548;2023-05-11T05:47:32;101033.47;;;25.96;43.06
68594;BME280;55563;52.416;13.548;2023-05-11T05:49:33;101042.41;;;26.00;44.62
68594;BME280;55563;52.416;13.548;2023-05-11T05:51:34;101035.41;;;28.16;40.65
68594;BME280;55563;52.416;13.548;2023-05-11T05:53:35;101042.19;;;30.12;38.40
68594;BME280;55563;52.416;13.548;2023-05-11T05:55:37;101043.66;;;28.27;39.50
68594;BME280;55563;52.416;13.548;2023-05-11T05:57:39;101040.78;;;28.46;38.82
68594;BME280;55563;52.416;13.548;2023-05-11T05:59:42;101046.19;;;29.20;37.63
68594;BME280;55563;52.416;13.548;2023-05-11T06:01:43;101053.81;;;29.55;37.44
68594;BME280;55563;52.416;13.548;2023-05-11T06:03:47;101047.72;;;29.17;37.35
68594;BME280;55563;52.416;13.548;2023-05-11T06:05:48;101046.38;;;29.92;37.39
68594;BME280;55563;52.416;13.548;2023-05-11T06:07:49;101053.59;;;28.49;37.89
68594;BME280;55563;52.416;13.548;2023-05-11T06:09:49;101048.94;;;30.47;35.50
68594;BME280;55563;52.416;13.548;2023-05-11T06:11:50;101043.78;;;30.24;36.36
68594;BME280;55563;52.416;13.548;2023-05-11T06:13:54;101047.59;;;29.47;36.37
68594;BME280;55563;52.416;13.548;2023-05-11T06:15:55;101058.59;;;29.21;37.73
68594;BME280;55563;52.416;13.548;2023-05-11T06:18:02;101049.84;;;31.04;35.33
68594;BME280;55563;52.416;13.548;2023-05-11T06:20:04;101048.63;;;30.84;36.17
68594;BME280;55563;52.416;13.548;2023-05-11T06:22:05;101050.78;;;32.34;34.21
68594;BME280;55563;52.416;13.548;2023-05-11T06:24:08;101050.56;;;31.82;32.21
68594;BME280;55563;52.416;13.548;2023-05-11T06:26:11;101042.09;;;31.31;32.99
68594;BME280;55563;52.416;13.548;2023-05-11T06:28:12;101038.97;;;27.18;37.14
68594;BME280;55563;52.416;13.548;2023-05-11T06:30:13;101047.69;;;29.61;35.51
68594;BME280;55563;52.416;13.548;2023-05-11T06:32:14;101053.47;;;29.60;35.57
68594;BME280;55563;52.416;13.548;2023-05-11T06:34:15;101053.56;;;29.74;34.58
68594;BME280;55563;52.416;13.548;2023-05-11T06:36:17;101041.13;;;32.22;32.99
68594;BME280;55563;52.416;13.548;2023-05-11T06:38:19;101040.84;;;30.71;34.65
68594;BME280;55563;52.416;13.548;2023-05-11T06:40:19;101045.56;;;31.28;33.44
68594;BME280;55563;52.416;13.548;2023-05-11T06:42:20;101048.88;;;32.24;32.10
68594;BME280;55563;52.416;13.548;2023-05-11T06:44:22;101050.59;;;31.33;33.19
68594;BME280;55563;52.416;13.548;2023-05-11T06:46:27;101039.34;;;31.38;32.10
68594;BME280;55563;52.416;13.548;2023-05-11T06:48:27;101039.75;;;31.11;32.69
68594;BME280;55563;52.416;13.548;2023-05-11T06:50:29;101047.91;;;31.08;33.11
68594;BME280;55563;52.416;13.548;2023-05-11T06:52:30;101051.34;;;30.69;33.19
68594;BME280;55563;52.416;13.548;2023-05-11T06:54:34;101047.81;;;30.55;32.71
68594;BME280;55563;52.416;13.548;2023-05-11T06:56:36;101039.19;;;30.35;33.76
68594;BME280;55563;52.416;13.548;2023-05-11T06:58:36;101037.22;;;30.28;34.50
68594;BME280;55563;52.416;13.548;2023-05-11T07:00:38;101036.31;;;32.47;31.01
68594;BME280;55563;52.416;13.548;2023-05-11T07:02:38;101046.72;;;31.55;33.11
68594;BME280;55563;52.416;13.548;2023-05-11T07:04:39;101037.53;;;32.39;32.39
68594;BME280;55563;52.416;13.548;2023-05-11T07:06:40;101045.69;;;32.43;31.74
68594;BME280;55563;52.416;13.548;2023-05-11T07:08:40;101037.75;;;31.83;31.48
68594;BME280;55563;52.416;13.548;2023-05-11T07:10:41;101037.81;;;31.30;31.96
68594;BME280;55563;52.416;13.548;2023-05-11T07:12:42;101035.66;;;32.29;33.02
68594;BME280;55563;52.416;13.548;2023-05-11T07:14:42;101044.78;;;31.63;31.78
68594;BME280;55563;52.416;13.548;2023-05-11T07:16:43;101036.66;;;32.57;30.85
68594;BME280;55563;52.416;13.548;2023-05-11T07:18:44;101046.88;;;33.52;30.98
68594;BME280;55563;52.416;13.548;2023-05-11T07:20:45;101045.53;;;31.74;32.77
68594;BME280;55563;52.416;13.548;2023-05-11T07:22:49;101046.06;;;33.07;30.51
68594;BME280;55563;52.416;13.548;2023-05-11T07:24:49;101044.75;;;31.84;32.14
68594;BME280;55563;52.416;13.548;2023-05-11T07:26:50;101043.44;;;32.24;31.62
68594;BME280;55563;52.416;13.548;2023-05-11T07:28:51;101045.69;;;32.47;31.16
68594;BME280;55563;52.416;13.548;2023-05-11T07:30:52;101051.25;;;29.72;33.45
68594;BME280;55563;52.416;13.548;2023-05-11T07:32:52;101046.31;;;30.86;32.48
68594;BME280;55563;52.416;13.548;2023-05-11T07:34:53;101048.84;;;30.29;34.01
68594;BME280;55563;52.416;13.548;2023-05-11T07:36:54;101044.63;;;29.66;35.79
68594;BME280;55563;52.416;13.548;2023-05-11T07:38:55;101051.66;;;27.18;39.21
68594;BME280;55563;52.416;13.548;2023-05-11T07:40:57;101041.75;;;27.25;38.55
68594;BME280;55563;52.416;13.548;2023-05-11T07:42:59;101039.84;;;25.72;40.08
68594;BME280;55563;52.416;13.548;2023-05-11T07:45:00;101049.31;;;26.17;41.42
68594;BME280;55563;52.416;13.548;2023-05-11T07:47:00;101051.03;;;24.40;42.67
68594;BME280;55563;52.416;13.548;2023-05-11T07:49:02;101044.47;;;25.25;42.14
68594;BME280;55563;52.416;13.548;2023-05-11T07:51:03;101038.03;;;25.76;42.13
68594;BME280;55563;52.416;13.548;2023-05-11T07:53:07;101044.72;;;25.51;43.98
68594;BME280;55563;52.416;13.548;2023-05-11T07:55:07;101042.97;;;23.88;42.91
68594;BME280;55563;52.416;13.548;2023-05-11T07:57:08;101039.09;;;23.40;45.17
68594;BME280;55563;52.416;13.548;2023-05-11T07:59:10;101036.66;;;22.16;46.82
68594;BME280;55563;52.416;13.548;2023-05-11T08:01:11;101045.25;;;23.29;48.35
68594;BME280;55563;52.416;13.548;2023-05-11T08:03:12;101048.66;;;24.51;44.97
68594;BME280;55563;52.416;13.548;2023-05-11T08:05:13;101048.16;;;23.36;45.06
68594;BME280;55563;52.416;13.548;2023-05-11T08:07:15;101049.22;;;22.98;46.41
68594;BME280;55563;52.416;13.548;2023-05-11T08:09:15;101039.78;;;23.25;49.22
68594;BME280;55563;52.416;13.548;2023-05-11T08:11:16;101040.44;;;23.22;45.37
68594;BME280;55563;52.416;13.548;2023-05-11T08:13:17;101040.56;;;22.60;48.66
68594;BME280;55563;52.416;13.548;2023-05-11T08:15:18;101046.81;;;22.64;47.32
68594;BME280;55563;52.416;13.548;2023-05-11T08:17:20;101045.38;;;22.34;49.21
68594;BME280;55563;52.416;13.548;2023-05-11T08:19:20;101049.56;;;21.00;50.37
68594;BME280;55563;52.416;13.548;2023-05-11T08:21:21;101044.25;;;22.14;50.91
68594;BME280;55563;52.416;13.548;2023-05-11T08:23:22;101041.94;;;22.87;48.41
68594;BME280;55563;52.416;13.548;2023-05-11T08:25:22;101032.63;;;23.29;48.38
68594;BME280;55563;52.416;13.548;2023-05-11T08:27:23;101032.78;;;23.57;48.33
68594;BME280;55563;52.416;13.548;2023-05-11T08:29:24;101039.25;;;23.56;50.04
68594;BME280;55563;52.416;13.548;2023-05-11T08:31:26;101035.13;;;23.59;47.36
68594;BME280;55563;52.416;13.548;2023-05-11T08:33:27;101045.94;;;24.11;47.65
68594;BME280;55563;52.416;13.548;2023-05-11T08:35:27;101042.69;;;24.17;48.27
68594;BME280;55563;52.416;13.548;2023-05-11T08:37:29;101041.94;;;23.44;46.37
68594;BME280;55563;52.416;13.548;2023-05-11T08:39:32;101039.56;;;22.65;48.89
68594;BME280;55563;52.416;13.548;2023-05-11T08:41:34;101035.81;;;22.45;48.90
68594;BME280;55563;52.416;13.548;2023-05-11T08:43:34;101038.69;;;22.93;49.34
68594;BME280;55563;52.416;13.548;2023-05-11T08:45:36;101031.63;;;22.56;48.41
68594;BME280;55563;52.416;13.548;2023-05-11T08:47:37;101033.50;;;23.09;48.36
68594;BME280;55563;52.416;13.548;2023-05-11T08:49:39;101026.38;;;22.80;48.29
68594;BME280;55563;52.416;13.548;2023-05-11T08:51:39;101027.16;;;23.26;50.10
68594;BME280;55563;52.416;13.548;2023-05-11T08:53:40;101024.25;;;23.43;48.09
68594;BME280;55563;52.416;13.548;2023-05-11T08:55:41;101021.34;;;23.36;49.92
68594;BME280;55563;52.416;13.548;2023-05-11T08:57:43;101033.00;;;23.76;49.79
68594;BME280;55563;52.416;13.548;2023-05-11T08:59:46;101022.22;;;23.16;48.12
68594;BME280;55563;52.416;13.548;2023-05-11T09:01:48;101033.13;;;22.45;48.33
68594;BME280;55563;52.416;13.548;2023-05-11T09:03:50;101033.00;;;22.41;48.51
68594;BME280;55563;52.416;13.548;2023-05-11T09:05:52;101025.88;;;22.99;49.59
68594;BME280;55563;52.416;13.548;2023-05-11T09:07:54;101024.22;;;23.07;49.67
68594;BME280;55563;52.416;13.548;2023-05-11T09:09:56;101031.81;;;23.04;48.38
68594;BME280;55563;52.416;13.548;2023-05-11T09:11:57;101023.38;;;22.61;49.08
68594;BME280;55563;52.416;13.548;2023-05-11T09:13:58;101018.94;;;22.98;48.10
68594;BME280;55563;52.416;13.548;2023-05-11T09:15:59;101018.81;;;23.52;49.16
68594;BME280;55563;52.416;13.548;2023-05-11T09:17:59;101030.28;;;24.01;46.80
68594;BME280;55563;52.416;13.548;2023-05-11T09:20:01;101033.97;;;23.96;47.90
68594;BME280;55563;52.416;13.548;2023-05-11T09:22:05;101014.38;;;24.08;46.34
68594;BME280;55563;52.416;13.548;2023-05-11T09:24:06;101027.47;;;24.09;46.77
68594;BME280;55563;52.416;13.548;2023-05-11T09:26:12;101021.34;;;24.37;45.53
68594;BME280;55563;52.416;13.548;2023-05-11T09:28:13;101016.78;;;24.93;46.60
68594;BME280;55563;52.416;13.548;2023-05-11T09:30:18;101020.47;;;24.32;44.72
68594;BME280;55563;52.416;13.548;2023-05-11T09:32:20;101021.47;;;23.39;44.50
68594;BME280;55563;52.416;13.548;2023-05-11T09:34:21;101025.47;;;24.06;46.59
68594;BME280;55563;52.416;13.548;2023-05-11T09:36:22;101018.34;;;22.80;45.06
68594;BME280;55563;52.416;13.548;2023-05-11T09:38:24;101029.91;;;23.17;46.65
68594;BME280;55563;52.416;13.548;2023-05-11T09:40:26;101030.41;;;23.43;45.37
68594;BME280;55563;52.416;13.548;2023-05-11T09:42:28;101026.22;;;24.19;46.11
68594;BME280;55563;52.416;13.548;2023-05-11T09:44:30;101021.72;;;24.35;40.92
68594;BME280;55563;52.416;13.548;2023-05-11T09:46:31;101029.00;;;24.35;41.68
68594;BME280;55563;52.416;13.548;2023-05-11T09:48:32;101021.50;;;24.84;41.65
68594;BME280;55563;52.416;13.548;2023-05-11T09:50:34;101022.72;;;24.86;41.68
68594;BME280;55563;52.416;13.548;2023-05-11T09:52:48;101016.41;;;24.94;40.96
68594;BME280;55563;52.416;13.548;2023-05-11T09:54:51;101020.38;;;24.57;40.68
68594;BME280;55563;52.416;13.548;2023-05-11T09:56:53;101019.47;;;23.73;40.38
68594;BME280;55563;52.416;13.548;2023-05-11T09:59:04;101021.81;;;23.74;40.61
68594;BME280;55563;52.416;13.548;2023-05-11T10:01:05;101021.22;;;24.05;40.69
68594;BME280;55563;52.416;13.548;2023-05-11T10:03:06;101026.16;;;24.71;42.00
68594;BME280;55563;52.416;13.548;2023-05-11T10:05:11;101018.97;;;24.47;40.69
68594;BME280;55563;52.416;13.548;2023-05-11T10:07:33;101017.97;;;24.12;39.99
68594;BME280;55563;52.416;13.548;2023-05-11T10:09:34;101021.00;;;24.50;41.73
68594;BME280;55563;52.416;13.548;2023-05-11T10:11:37;101020.94;;;24.62;41.75
68594;BME280;55563;52.416;13.548;2023-05-11T10:13:38;101019.09;;;23.38;40.88
68594;BME280;55563;52.416;13.548;2023-05-11T10:15:39;101013.28;;;23.24;42.06
68594;BME280;55563;52.416;13.548;2023-05-11T10:17:40;101014.16;;;23.03;42.59
68594;BME280;55563;52.416;13.548;2023-05-11T10:19:45;101010.50;;;24.45;43.14
68594;BME280;55563;52.416;13.548;2023-05-11T10:21:46;101012.66;;;24.27;41.07
68594;BME280;55563;52.416;13.548;2023-05-11T10:23:47;101008.59;;;24.46;43.23
68594;BME280;55563;52.416;13.548;2023-05-11T10:25:49;101003.59;;;25.35;42.38
68594;BME280;55563;52.416;13.548;2023-05-11T10:27:51;101003.22;;;24.89;39.48
68594;BME280;55563;52.416;13.548;2023-05-11T10:29:53;101009.53;;;24.53;41.34
68594;BME280;55563;52.416;13.548;2023-05-11T10:31:54;101005.56;;;23.95;41.63
68594;BME280;55563;52.416;13.548;2023-05-11T10:33:57;100990.47;;;23.06;41.43